Time;durP1;ratioP1;P1;durP2;ratioP2;P2;SDS_P1;SDS_P2;PMS_P1;PMS_P2;Temp;Humidity;BMP_temperature;BMP_pressure;BME280_temperature;BME280_humidity;BME280_pressure;Samples;Min_cycle;Max_cycle;Signal;HPM_P1;HPM_P2
2023/12/04 00:01:35;;;;;;;4.37;3.17;;;;;;;22.36;31.83;95507.78;6161328;28;109382;-61
2023/12/04 00:04:40;;;;;;;3.27;2.80;;;;;;;22.44;32.00;95523.06;6161659;28;108870;-61
2023/12/04 00:07:44;;;;;;;3.17;2.77;;;;;;;22.47;31.89;95524.34;6161122;28;109157;-62
2023/12/04 00:10:47;;;;;;;3.90;3.10;;;;;;;22.47;31.87;95530.47;6147894;28;110130;-61
2023/12/04 00:13:50;;;;;;;3.30;3.00;;;;;;;22.45;31.91;95535.31;6166309;28;109253;-61
2023/12/04 00:16:53;;;;;;;3.33;3.03;;;;;;;22.46;31.66;95539.56;6185730;28;109024;-61
2023/12/04 00:19:56;;;;;;;3.30;3.00;;;;;;;22.44;32.06;95531.06;6168116;28;109140;-62
2023/12/04 00:23:01;;;;;;;3.80;2.97;;;;;;;22.46;31.57;95534.25;6154364;28;110643;-61
2023/12/04 00:26:05;;;;;;;4.10;3.20;;;;;;;22.45;31.89;95538.00;6185077;28;109360;-61
2023/12/04 00:29:08;;;;;;;3.80;3.00;;;;;;;22.46;31.45;95538.78;6178430;28;110235;-61
2023/12/04 00:32:11;;;;;;;3.20;2.90;;;;;;;22.45;31.55;95547.88;6148775;28;109115;-62
2023/12/04 00:35:14;;;;;;;3.13;2.83;;;;;;;22.42;32.08;95539.38;6159969;28;109175;-61
2023/12/04 00:38:19;;;;;;;3.93;3.40;;;;;;;22.44;31.80;95552.41;6160906;28;109246;-61
2023/12/04 00:41:22;;;;;;;5.53;3.20;;;;;;;22.43;31.71;95550.84;6154971;28;109156;-61
2023/12/04 00:44:25;;;;;;;3.87;3.30;;;;;;;22.42;31.82;95558.03;6158750;28;111498;-61
2023/12/04 00:47:29;;;;;;;3.37;3.07;;;;;;;22.44;31.59;95560.41;6184866;28;109190;-62
2023/12/04 00:50:33;;;;;;;3.03;2.73;;;;;;;22.45;31.73;95558.53;6161443;28;111700;-62
2023/12/04 00:53:38;;;;;;;5.83;3.67;;;;;;;22.45;31.47;95563.88;6145566;28;110483;-62
2023/12/04 00:56:41;;;;;;;2.63;2.43;;;;;;;22.46;31.56;95562.78;6149955;28;109219;-61
2023/12/04 00:59:44;;;;;;;3.10;2.67;;;;;;;22.34;31.75;95541.91;6158407;28;109309;-61
2023/12/04 01:02:47;;;;;;;2.87;2.57;;;;;;;22.45;31.62;95570.00;6159462;28;109265;-62
2023/12/04 01:05:50;;;;;;;3.23;2.93;;;;;;;22.42;32.18;95559.91;6159338;28;109501;-61
2023/12/04 01:08:55;;;;;;;2.97;2.77;;;;;;;22.45;32.03;95562.00;6154948;28;109250;-61
2023/12/04 01:11:58;;;;;;;3.10;2.60;;;;;;;22.44;31.50;95563.09;6159681;28;109305;-61
2023/12/04 01:15:02;;;;;;;4.23;3.53;;;;;;;22.43;31.59;95564.16;6160084;28;110218;-61
2023/12/04 01:18:05;;;;;;;3.03;2.73;;;;;;;22.44;31.81;95559.63;6149917;28;109988;-61
2023/12/04 01:21:09;;;;;;;3.13;2.70;;;;;;;22.35;31.80;95554.19;6159556;28;109165;-61
2023/12/04 01:24:16;;;;;;;2.63;2.40;;;;;;;22.40;31.94;95554.88;6157861;28;108891;-61
2023/12/04 01:27:19;;;;;;;3.07;2.77;;;;;;;22.42;32.01;95568.72;6160170;28;109520;-61
2023/12/04 01:30:22;;;;;;;3.20;2.80;;;;;;;22.39;31.67;95561.31;6149779;28;109277;-61
2023/12/04 01:33:25;;;;;;;3.17;2.87;;;;;;;22.32;31.79;95549.44;6158210;28;109144;-61
2023/12/04 01:36:28;;;;;;;3.30;2.90;;;;;;;22.42;31.73;95559.91;6159809;28;108913;-61
2023/12/04 01:39:32;;;;;;;3.00;2.70;;;;;;;22.42;31.63;95562.59;6156012;28;108920;-63
2023/12/04 01:42:36;;;;;;;3.70;2.67;;;;;;;22.40;31.58;95562.09;6150994;28;111437;-61
2023/12/04 01:45:39;;;;;;;3.50;3.20;;;;;;;22.39;31.51;95560.50;6159950;28;112303;-61
2023/12/04 01:48:42;;;;;;;3.33;3.03;;;;;;;22.31;31.55;95559.31;6158940;28;109129;-61
2023/12/04 01:51:46;;;;;;;2.93;2.73;;;;;;;22.40;31.53;95578.09;6148213;28;109816;-61
2023/12/04 01:54:51;;;;;;;2.87;2.67;;;;;;;22.38;31.41;95575.72;6169960;28;109391;-61
2023/12/04 01:57:56;;;;;;;2.80;2.60;;;;;;;22.35;31.17;95576.31;6188142;28;109298;-61
2023/12/04 02:00:59;;;;;;;3.33;2.90;;;;;;;22.37;31.24;95568.03;6177995;28;109176;-61
2023/12/04 02:04:03;;;;;;;4.10;3.20;;;;;;;22.35;31.19;95570.19;6152908;28;109613;-61
2023/12/04 02:07:06;;;;;;;2.90;2.70;;;;;;;22.35;30.93;95571.00;6163479;28;109481;-61
2023/12/04 02:10:11;;;;;;;3.00;2.80;;;;;;;22.39;31.15;95581.84;6162313;28;109373;-61
2023/12/04 02:13:15;;;;;;;2.57;2.37;;;;;;;22.37;31.18;95571.47;6163511;28;109171;-62
2023/12/04 02:16:20;;;;;;;2.87;2.57;;;;;;;22.38;31.37;95580.28;6152537;28;109444;-62
2023/12/04 02:19:24;;;;;;;2.70;2.50;;;;;;;22.38;30.88;95591.72;6167437;28;109706;-61
2023/12/04 02:22:27;;;;;;;3.20;2.90;;;;;;;22.35;31.41;95596.84;6165061;28;109358;-61
2023/12/04 02:25:32;;;;;;;2.93;2.70;;;;;;;22.28;31.28;95583.09;6157035;28;109142;-61
2023/12/04 02:28:41;;;;;;;2.83;2.63;;;;;;;22.24;30.92;95582.91;6146245;28;109610;-61
2023/12/04 02:31:45;;;;;;;2.90;2.70;;;;;;;22.39;31.32;95611.19;6169047;28;109577;-62
2023/12/04 02:34:50;;;;;;;3.10;2.80;;;;;;;22.38;30.89;95605.06;6161720;28;108973;-62
2023/12/04 02:37:54;;;;;;;2.63;2.43;;;;;;;22.38;31.13;95610.38;6152628;28;109229;-62
2023/12/04 02:40:59;;;;;;;3.53;3.23;;;;;;;22.38;31.18;95605.06;6170341;28;111940;-63
2023/12/04 02:44:02;;;;;;;2.47;2.27;;;;;;;22.35;30.77;95602.97;6138388;28;109179;-63
2023/12/04 02:47:05;;;;;;;3.07;2.87;;;;;;;22.37;30.80;95616.81;6145941;28;109036;-61
2023/12/04 02:50:08;;;;;;;2.50;2.30;;;;;;;22.37;31.03;95618.69;6151567;28;109158;-61
2023/12/04 02:53:12;;;;;;;3.30;3.00;;;;;;;22.36;30.77;95617.91;6160953;28;109312;-61
2023/12/04 02:56:16;;;;;;;3.13;2.87;;;;;;;22.28;31.07;95607.09;6180053;28;109135;-62
2023/12/04 02:59:19;;;;;;;3.60;3.30;;;;;;;22.36;30.86;95619.78;6182357;28;109502;-61
2023/12/04 03:02:22;;;;;;;3.00;2.57;;;;;;;22.34;30.68;95608.59;6160129;28;109250;-61
2023/12/04 03:05:25;;;;;;;2.33;2.13;;;;;;;22.35;30.48;95607.53;6157131;28;110843;-61
2023/12/04 03:08:29;;;;;;;2.53;2.33;;;;;;;22.35;30.78;95618.19;6160848;28;109282;-61
2023/12/04 03:11:34;;;;;;;3.23;2.93;;;;;;;22.32;30.88;95614.22;6158213;28;109325;-62
2023/12/04 03:14:37;;;;;;;2.70;2.50;;;;;;;22.20;30.58;95600.56;6165451;28;109315;-62
2023/12/04 03:17:40;;;;;;;2.80;2.57;;;;;;;22.34;30.75;95633.38;6164368;28;109473;-61
2023/12/04 03:20:43;;;;;;;2.80;2.60;;;;;;;22.35;30.82;95628.84;6168858;28;111790;-61
2023/12/04 03:23:46;;;;;;;2.83;2.60;;;;;;;22.25;30.58;95619.13;6149921;28;109091;-61
2023/12/04 03:26:51;;;;;;;3.23;2.93;;;;;;;22.30;30.47;95624.38;6161624;28;110279;-62
2023/12/04 03:29:54;;;;;;;2.57;2.37;;;;;;;22.33;30.36;95629.13;6161569;28;109333;-61
2023/12/04 03:32:57;;;;;;;2.90;2.70;;;;;;;22.33;30.36;95631.00;6160480;28;110337;-61
2023/12/04 03:36:01;;;;;;;3.13;2.83;;;;;;;22.33;30.51;95636.34;6151538;28;109135;-61
2023/12/04 03:39:04;;;;;;;3.10;2.80;;;;;;;22.33;30.41;95636.34;6151462;28;110442;-61
2023/12/04 03:42:08;;;;;;;2.87;2.67;;;;;;;22.33;30.54;95636.34;6164065;28;109390;-61
2023/12/04 03:45:11;;;;;;;3.20;3.00;;;;;;;22.30;30.02;95639.59;6154892;28;109445;-61
2023/12/04 03:48:14;;;;;;;3.13;2.80;;;;;;;22.32;30.37;95653.41;6160414;28;109156;-61
2023/12/04 03:51:18;;;;;;;3.10;2.80;;;;;;;22.32;29.97;95650.75;6164978;28;109350;-61
2023/12/04 03:54:21;;;;;;;2.87;2.57;;;;;;;22.19;30.35;95622.19;6160789;28;110992;-61
2023/12/04 03:57:25;;;;;;;2.63;2.43;;;;;;;22.31;30.30;95643.84;6176069;28;108837;-61
2023/12/04 04:00:29;;;;;;;2.80;2.60;;;;;;;22.30;30.27;95643.03;6180889;28;109064;-61
2023/12/04 04:03:32;;;;;;;3.43;2.83;;;;;;;22.31;30.55;95649.97;6160662;28;109284;-60
2023/12/04 04:06:38;;;;;;;3.13;2.93;;;;;;;22.32;30.37;95656.06;6161293;28;109299;-61
2023/12/04 04:09:41;;;;;;;2.47;2.27;;;;;;;22.32;30.55;95650.75;6150591;28;109266;-61
2023/12/04 04:12:45;;;;;;;3.53;2.70;;;;;;;22.27;30.52;95648.97;6159569;28;109150;-60
2023/12/04 04:15:49;;;;;;;3.60;2.97;;;;;;;22.31;30.30;95654.50;6160657;28;109166;-61
2023/12/04 04:18:52;;;;;;;7.43;6.90;;;;;;;22.31;29.66;95659.84;6156717;28;109310;-63
2023/12/04 04:21:55;;;;;;;7.10;6.50;;;;;;;22.31;29.93;95665.16;6157933;28;109456;-60
2023/12/04 04:24:58;;;;;;;21.90;20.33;;;;;;;22.23;31.05;95665.84;6156094;28;109631;-60
2023/12/04 04:28:03;;;;;;;42.27;39.13;;;;;;;22.20;30.82;95663.75;6161211;28;109310;-62
2023/12/04 04:31:06;;;;;;;60.03;55.50;;;;;;;22.03;30.74;95677.63;6156192;28;110048;-62
2023/12/04 04:34:11;;;;;;;;;;;;;;;21.25;28.04;95667.44;6181843;28;108730;-61
2023/12/04 04:37:14;;;;;;;;;;;;;;;21.43;29.17;95672.78;6161791;28;109666;-61
2023/12/04 04:40:17;;;;;;;;;;;;;;;21.60;29.73;95682.16;6161277;28;109143;-62
2023/12/04 04:43:21;;;;;;;;;;;;;;;21.70;29.81;95677.50;6151525;28;109295;-62
2023/12/04 04:46:25;;;;;;;;;;;;;;;21.77;30.05;95677.94;6160776;28;109173;-62
2023/12/04 04:49:28;;;;;;;;;;;;;;;21.85;30.71;95686.41;6159493;28;110177;-68
2023/12/04 04:52:31;;;;;;;;;;;;;;;21.82;30.70;95685.09;6150711;28;109052;-62
2023/12/04 04:55:34;;;;;;;;;;;;;;;21.87;30.78;95687.69;6155807;28;109193;-61
2023/12/04 04:58:52;;;;;;;;;;;;;;;21.87;30.52;95687.69;6170460;28;110143;-62
2023/12/04 05:01:55;;;;;;;;;;;;;;;21.90;30.84;95691.66;6181429;28;109051;-62
2023/12/04 05:04:58;;;;;;;;;;;;;;;21.92;29.97;95689.50;6171056;28;109257;-64
2023/12/04 05:08:01;;;;;;;;;;;;;;;21.93;30.08;95686.53;6151337;28;108899;-61
2023/12/04 05:11:04;;;;;;;;;;;;;;;21.34;27.40;95689.66;6158821;28;109111;-61
2023/12/04 05:14:08;;;;;;;;;;;;;;;21.06;27.64;95686.03;6161247;28;109442;-62
2023/12/04 05:17:11;;;;;;;;;;;;;;;20.80;25.87;95698.75;6151731;28;109217;-60
2023/12/04 05:20:14;;;;;;;;;;;;;;;21.03;27.57;95697.19;6161283;28;109597;-61
2023/12/04 05:23:17;;;;;;;;;;;;;;;21.27;27.89;95694.56;6140235;28;109134;-64
2023/12/04 05:26:19;;;;;;;;;;;;;;;21.44;28.50;95701.00;6146045;28;109394;-62
2023/12/04 05:29:24;;;;;;;;;;;;;;;21.51;28.73;95709.44;6151213;28;109423;-62
2023/12/04 05:32:27;;;;;;;;;;;;;;;21.57;28.61;95696.84;6178699;28;109290;-62
2023/12/04 05:35:33;;;;;;;;;;;;;;;21.65;28.16;95706.84;6181668;28;109586;-62
2023/12/04 05:38:36;;;;;;;;;;;;;;;21.67;28.52;95706.56;6155847;28;109519;-62
2023/12/04 05:41:39;;;;;;;;;;;;;;;21.71;28.64;95705.72;6155627;28;109234;-62
2023/12/04 05:44:43;;;;;;;;;;;;;;;21.73;28.23;95708.91;6160225;28;109292;-62
2023/12/04 05:47:46;;;;;;;;;;;;;;;21.77;28.50;95714.44;6181676;28;111169;-63
2023/12/04 05:50:49;;;;;;;;;;;;;;;21.81;28.41;95726.09;6174620;28;110125;-62
2023/12/04 05:53:52;;;;;;;;;;;;;;;21.83;27.92;95720.50;6185566;28;109244;-62
2023/12/04 05:56:55;;;;;;;;;;;;;;;21.84;28.50;95719.44;6171249;28;109430;-62
2023/12/04 05:59:59;;;;;;;;;;;;;;;21.86;28.49;95711.97;6160666;28;109239;-62
2023/12/04 06:03:02;;;;;;;;;;;;;;;21.84;29.11;95720.22;6151292;28;109214;-62
2023/12/04 06:06:05;;;;;;;;;;;;;;;21.82;29.08;95717.06;6160269;28;109066;-61
2023/12/04 06:09:08;;;;;;;;;;;;;;;21.79;29.26;95728.25;6160265;28;109946;-61
2023/12/04 06:12:11;;;;;;;;;;;;;;;21.78;28.96;95734.66;6159596;28;109097;-69
2023/12/04 06:15:15;;;;;;;;;;;;;;;21.77;29.06;95735.75;6152652;28;109686;-62
2023/12/04 06:18:20;;;;;;;;;;;;;;;21.86;28.09;95738.63;6183606;28;109251;-62
2023/12/04 06:21:23;;;;;;;;;;;;;;;21.94;27.68;95741.41;6184180;28;109132;-62
2023/12/04 06:24:26;;;;;;;;;;;;;;;21.98;28.20;95742.41;6175650;28;109161;-62
2023/12/04 06:27:29;;;;;;;;;;;;;;;22.01;28.03;95747.19;6166835;28;109198;-61
2023/12/04 06:30:34;;;;;;;;;;;;;;;22.00;28.42;95750.91;6159862;28;109088;-62
2023/12/04 06:33:37;;;;;;;;;;;;;;;22.00;28.21;95748.25;6134988;28;109043;-62
2023/12/04 06:36:40;;;;;;;;;;;;;;;21.99;29.02;95749.34;6135222;28;109035;-62
2023/12/04 06:39:45;;;;;;;;;;;;;;;21.99;28.94;95753.88;6159936;28;108966;-62
2023/12/04 06:42:49;;;;;;;;;;;;;;;22.00;28.68;95761.56;6163835;28;109051;-63
2023/12/04 06:45:56;;;;;;;;;;;;;;;22.01;28.51;95767.69;6163617;28;109215;-62
2023/12/04 06:49:00;;;;;;;;;;;;;;;22.02;28.74;95774.63;6155682;28;109371;-62
2023/12/04 06:52:04;;;;;;;;;;;;;;;22.01;28.69;95775.69;6174913;28;109436;-62
2023/12/04 06:55:08;;;;;;;;;;;;;;;22.00;28.60;95780.22;6188069;28;109035;-62
2023/12/04 06:58:11;;;;;;;;;;;;;;;21.99;28.90;95778.66;6183312;28;109923;-62
2023/12/04 07:01:15;;;;;;;;;;;;;;;21.99;29.00;95783.19;6178409;28;109049;-62
2023/12/04 07:04:20;;;;;;;;;;;;;;;21.98;29.20;95782.38;6163236;28;109239;-61
2023/12/04 07:07:24;;;;;;;;;;;;;;;21.97;29.00;95782.69;6162090;28;109233;-62
2023/12/04 07:10:27;;;;;;;;;;;;;;;21.96;29.23;95784.56;6128955;28;109262;-62
2023/12/04 07:13:30;;;;;;;;;;;;;;;21.96;29.70;95794.41;6166041;28;109378;-62
2023/12/04 07:16:41;;;;;;;;;;;;;;;21.97;29.30;95799.47;6168269;28;109206;-62
2023/12/04 07:19:44;;;;;;;;;;;;;;;21.95;29.08;95790.97;6188193;28;109288;-63
2023/12/04 07:22:47;;;;;;;;;;;;;;;21.95;29.25;95787.50;6161648;28;109440;-62
2023/12/04 07:25:51;;;;;;;;;;;;;;;21.96;29.24;95784.56;6162931;28;109105;-62
2023/12/04 07:28:54;;;;;;;;;;;;;;;21.97;29.31;95796.00;6161646;28;109181;-62
2023/12/04 07:31:58;;;;;;;;;;;;;;;21.99;28.83;95801.84;6158639;28;109328;-62
2023/12/04 07:35:01;;;;;;;;;;;;;;;22.01;28.95;95800.50;6157273;28;109060;-62
2023/12/04 07:38:04;;;;;;;;;;;;;;;22.02;29.62;95809.28;6162764;28;110878;-62
2023/12/04 07:41:07;;;;;;;;;;;;;;;22.03;29.29;95813.53;6162532;28;109116;-61
2023/12/04 07:44:10;;;;;;;;;;;;;;;22.03;29.01;95811.66;6153138;28;109141;-62
2023/12/04 07:47:15;;;;;;;;;;;;;;;22.03;29.29;95816.19;6171701;28;109017;-62
2023/12/04 07:50:18;;;;;;;;;;;;;;;22.04;28.96;95804.47;6187273;28;109053;-62
2023/12/04 07:53:21;;;;;;;;;;;;;;;22.03;29.52;95803.66;6186803;28;109207;-62
2023/12/04 07:56:24;;;;;;;;;;;;;;;22.04;29.44;95799.91;6178232;28;109154;-62
2023/12/04 07:59:26;;;;;;;;;;;;;;;22.05;29.36;95806.03;6186601;28;109434;-62
2023/12/04 08:02:31;;;;;;;;;;;;;;;22.03;29.64;95805.53;6187594;28;109054;-60
2023/12/04 08:05:34;;;;;;;;;;;;;;;22.03;29.47;95801.00;6186539;28;109048;-61
2023/12/04 08:08:37;;;;;;;;;;;;;;;21.70;29.60;95752.09;6177126;28;109301;-61
2023/12/04 08:11:39;;;;;;;;;;;;;;;22.01;29.00;95800.50;6186311;28;109521;-62
2023/12/04 08:14:43;;;;;;;;;;;;;;;22.02;29.88;95809.28;6186494;28;109382;-61
2023/12/04 08:17:47;;;;;;;;;;;;;;;22.00;29.50;95806.88;6182136;28;109210;-61
2023/12/04 08:20:50;;;;;;;;;;;;;;;22.00;29.24;95806.88;6182623;28;109044;-64
2023/12/04 08:23:53;;;;;;;;;;;;;;;22.00;29.83;95814.09;6164782;28;109233;-61
2023/12/04 08:26:57;;;;;;;;;;;;;;;22.02;29.38;95811.94;6166828;28;109347;-61
2023/12/04 08:30:00;;;;;;;;;;;;;;;22.04;29.44;95810.59;6175739;28;111778;-60
2023/12/04 08:33:04;;;;;;;;;;;;;;;22.01;28.88;95811.16;6171542;28;109658;-61
2023/12/04 08:36:07;;;;;;;;;;;;;;;22.01;29.30;95813.81;6161598;28;109088;-62
2023/12/04 08:39:10;;;;;;;;;;;;;;;22.03;29.38;95816.19;6184168;28;109121;-61
2023/12/04 08:42:14;;;;;;;;;;;;;;;22.04;29.22;95815.91;6168758;28;108890;-61
2023/12/04 08:45:25;;;;;;;;;;;;;;;22.06;29.47;95811.09;6161317;28;109205;-61
2023/12/04 08:48:29;;;;;;;;;;;;;;;22.08;28.81;95816.13;6161106;28;110019;-62
2023/12/04 08:51:32;;;;;;;;;;;;;;;22.09;28.80;95812.38;6157516;28;109016;-61
2023/12/04 08:54:39;;;;;;;;;;;;;;;22.09;28.81;95807.06;6156053;28;110153;-61
2023/12/04 08:57:42;;;;;;;;;;;;;;;22.09;29.05;95804.38;6161149;28;108855;-62
2023/12/04 09:00:45;;;;;;;;;;;;;;;22.09;28.84;95807.84;6160098;28;109429;-63
2023/12/04 09:03:50;;;;;;;;;;;;;;;22.10;28.74;95806.75;6168596;28;109792;-61
2023/12/04 09:06:53;;;;;;;;;;;;;;;22.11;29.08;95813.69;6185204;28;109407;-61
2023/12/04 09:09:59;;;;;;;;;;;;;;;22.11;29.19;95811.00;6182435;28;108863;-61
2023/12/04 09:13:07;;;;;;;;;;;;;;;22.13;28.84;95801.94;6173947;28;109581;-60
2023/12/04 09:16:10;;;;;;;;;;;;;;;22.14;29.29;95796.31;6150867;28;109120;-61
2023/12/04 09:19:14;;;;;;;;;;;;;;;22.17;29.22;95793.06;6161204;28;109119;-63
2023/12/04 09:22:17;;;;;;;;;;;;;;;22.17;28.85;95790.41;6165676;28;109083;-60
2023/12/04 09:25:23;;;;;;;;;;;;;;;22.21;28.59;95785.31;6183752;28;109708;-65
2023/12/04 09:28:26;;;;;;;;;;;;;;;22.27;28.79;95778.81;6177773;28;109192;-60
2023/12/04 09:31:29;;;;;;;;;;;;;;;22.31;28.81;95774.47;6183448;28;109279;-63
2023/12/04 09:34:33;;;;;;;;;;;;;;;22.34;28.77;95776.56;6184488;28;109456;-61
2023/12/04 09:37:36;;;;;;;;;;;;;;;22.35;28.97;95770.19;6174906;28;109315;-62
2023/12/04 09:40:39;;;;;;;;;;;;;;;22.36;29.31;95775.22;6184610;28;109202;-62
2023/12/04 09:43:42;;;;;;;;;;;;;;;22.01;29.22;95712.56;6169182;28;110373;-61
2023/12/04 09:46:45;;;;;;;;;;;;;;;22.41;29.42;95772.47;6159996;28;109347;-62
2023/12/04 09:49:52;;;;;;;;;;;;;;;22.41;29.25;95769.00;6150193;28;109993;-60
2023/12/04 09:52:56;;;;;;;;;;;;;;;22.44;29.38;95770.31;6168075;28;109073;-61
2023/12/04 09:56:00;;;;;;;;;;;;;;;22.44;29.50;95765.75;6184373;28;109251;-61
2023/12/04 09:59:06;;;;;;;;;;;;;;;22.45;29.42;95755.88;6183743;28;109104;-61
2023/12/04 10:02:09;;;;;;;;;;;;;;;22.45;29.07;95755.88;6171696;28;112252;-61
2023/12/04 10:05:13;;;;;;;;;;;;;;;22.45;29.41;95759.34;6159508;28;109607;-61
2023/12/04 10:08:17;;;;;;;;;;;;;;;22.45;29.02;95743.34;6170224;28;109359;-61
2023/12/04 10:11:20;;;;;;;;;;;;;;;22.42;29.06;95744.72;6179641;28;111903;-63
2023/12/04 10:14:23;;;;;;;;;;;;;;;22.44;29.33;95743.63;6158984;28;109054;-62
2023/12/04 10:17:33;;;;;;;;;;;;;;;22.43;29.36;95748.19;6163571;28;109166;-61
2023/12/04 10:20:52;;;;;;;;;;;;;;;22.46;28.84;95750.25;6164308;28;109370;-61
2023/12/04 10:23:55;;;;;;;;;;;;;;;22.46;28.96;95742.25;6152774;28;109352;-61
2023/12/04 10:26:57;;;;;;;;;;;;;;;22.46;29.12;95742.25;6163415;28;109789;-61
2023/12/04 10:30:00;;;;;;;;;;;;;;;22.46;29.25;95746.81;6164216;28;110060;-61
2023/12/04 10:33:05;;;;;;;;;;;;;;;22.46;28.81;95736.13;6162217;28;109624;-61
2023/12/04 10:36:13;;;;;;;;;;;;;;;22.46;29.01;95726.25;6153186;28;109311;-61
2023/12/04 10:39:17;;;;;;;;;;;;;;;22.46;28.72;95728.94;6163317;28;109051;-61
2023/12/04 10:42:26;;;;;;;;;;;;;;;22.49;28.80;95730.22;6164397;28;109189;-62
2023/12/04 10:45:30;;;;;;;;;;;;;;;22.52;28.93;95730.44;6157856;28;109226;-62
2023/12/04 10:48:33;;;;;;;;;;;;;;;22.51;29.32;95730.72;6161339;28;110152;-60
2023/12/04 10:51:38;;;;;;;;;;;;;;;22.46;29.40;95725.47;6163300;28;109156;-62
2023/12/04 10:54:41;;;;;;;;;;;;;;;22.44;29.29;95727.63;6163763;28;109897;-61
2023/12/04 10:57:44;;;;;;;;;;;;;;;22.44;29.16;95727.63;6152679;28;109025;-61
2023/12/04 11:00:48;;;;;;;;;;;;;;;22.42;29.48;95722.59;6162621;28;109124;-62
2023/12/04 11:03:53;;;;;;;;;;;;;;;22.41;29.00;95721.81;6174256;28;109083;-61
2023/12/04 11:07:00;;;;;;;;;;;;;;;22.40;29.38;95722.88;6187315;28;109037;-61
2023/12/04 11:10:05;;;;;;;;;;;;;;;22.39;29.19;95717.84;6176785;28;109188;-61
2023/12/04 11:13:11;;;;;;;;;;;;;;;22.39;29.13;95715.19;6182863;28;109027;-61
2023/12/04 11:16:19;;;;;;;;;;;;;;;22.38;29.48;95710.94;6187589;28;109553;-61
2023/12/04 11:19:27;;;;;;;;;;;;;;;22.37;29.25;95704.81;6181303;28;109322;-62
2023/12/04 11:22:32;;;;;;;;;;;;;;;22.38;29.10;95710.94;6183530;28;109307;-62
2023/12/04 11:25:36;;;;;;;;;;;;;;;22.35;29.38;95704.31;6162654;28;109114;-62
2023/12/04 11:28:39;;;;;;;;;;;;;;;22.35;29.18;95695.53;6161407;28;109101;-62
2023/12/04 11:31:42;;;;;;;;;;;;;;;22.35;29.05;95690.19;6151874;28;109169;-62
2023/12/04 11:34:48;;;;;;;;;;;;;;;22.34;29.59;95688.56;6160812;28;109102;-62
2023/12/04 11:37:53;;;;;;;;;;;;;;;22.34;29.12;95677.91;6162385;28;109083;-63
2023/12/04 11:40:56;;;;;;;;;;;;;;;22.34;29.31;95678.69;6162675;28;109587;-66
2023/12/04 11:44:01;;;;;;;;;;;;;;;22.33;29.32;95674.44;6153308;28;109687;-63
2023/12/04 11:47:05;;;;;;;;;;;;;;;22.32;29.38;95672.06;6162027;28;108966;-61
2023/12/04 11:50:09;;;;;;;;;;;;;;;22.30;28.96;95660.91;6161936;28;109058;-61
2023/12/04 11:53:13;;;;;;;;;;;;;;;22.30;29.63;95653.72;6161255;28;109203;-62
2023/12/04 11:56:17;;;;;;;;;;;;;;;22.29;29.27;95662.78;6181957;28;108596;-61
2023/12/04 11:59:21;;;;;;;;;;;;;;;22.29;29.58;95651.34;6173216;28;109070;-62
2023/12/04 12:02:24;;;;;;;;;;;;;;;22.28;29.19;95650.53;6161745;28;109464;-62
2023/12/04 12:05:28;;;;;;;;;;;;;;;22.27;29.38;95656.16;6172769;28;109127;-62
2023/12/04 12:08:32;;;;;;;;;;;;;;;22.26;29.37;95649.25;6185855;28;109270;-61
2023/12/04 12:11:35;;;;;;;;;;;;;;;22.23;29.17;95631.97;6186322;28;109266;-61
2023/12/04 12:14:38;;;;;;;;;;;;;;;22.24;29.47;95641.56;6179126;28;109114;-62
2023/12/04 12:17:42;;;;;;;;;;;;;;;22.24;28.86;95643.44;6176190;28;109108;-63
2023/12/04 12:20:45;;;;;;;;;;;;;;;22.24;29.24;95632.75;6186408;28;109173;-62
2023/12/04 12:23:49;;;;;;;;;;;;;;;22.22;29.26;95630.41;6187026;28;109422;-62
2023/12/04 12:26:52;;;;;;;;;;;;;;;22.22;29.21;95621.59;6187264;28;109134;-62
2023/12/04 12:29:54;;;;;;;;;;;;;;;22.23;28.95;95625.84;6176286;28;111951;-62
2023/12/04 12:32:58;;;;;;;;;;;;;;;22.21;29.47;95617.34;6185880;28;109596;-63
2023/12/04 12:36:03;;;;;;;;;;;;;;;22.21;29.31;95622.69;6161168;28;109165;-62
2023/12/04 12:39:08;;;;;;;;;;;;;;;22.19;29.33;95609.66;6163851;28;109953;-65
2023/12/04 12:42:12;;;;;;;;;;;;;;;22.23;29.18;95607.19;6184065;28;109423;-61
2023/12/04 12:45:15;;;;;;;;;;;;;;;22.28;29.13;95604.44;6162268;28;109352;-61
2023/12/04 12:48:19;;;;;;;;;;;;;;;22.34;28.94;95609.38;6162545;28;111940;-60
2023/12/04 12:51:22;;;;;;;;;;;;;;;22.29;29.20;95608.69;6151877;28;109007;-62
2023/12/04 12:54:26;;;;;;;;;;;;;;;22.24;29.52;95609.56;6161914;28;109098;-62
2023/12/04 12:57:30;;;;;;;;;;;;;;;22.20;29.53;95605.91;6162245;28;109274;-62
2023/12/04 13:00:34;;;;;;;;;;;;;;;22.20;29.75;95600.56;6181492;28;109371;-61
2023/12/04 13:03:37;;;;;;;;;;;;;;;22.18;29.56;95593.94;6175587;28;108861;-61
2023/12/04 13:06:40;;;;;;;;;;;;;;;22.18;29.50;95597.41;6184418;28;109082;-61
2023/12/04 13:09:45;;;;;;;;;;;;;;;22.17;29.24;95600.34;6185158;28;109064;-60
2023/12/04 13:12:52;;;;;;;;;;;;;;;22.17;29.41;95587.81;6174925;28;109331;-63
2023/12/04 13:15:55;;;;;;;;;;;;;;;22.17;29.76;95587.81;6177207;28;109247;-61
2023/12/04 13:18:59;;;;;;;;;;;;;;;22.17;29.35;95595.81;6184956;28;109359;-62
2023/12/04 13:22:03;;;;;;;;;;;;;;;22.17;29.50;95595.81;6185135;28;109208;-61
2023/12/04 13:25:09;;;;;;;;;;;;;;;22.18;29.50;95599.25;6160727;28;109162;-61
2023/12/04 13:28:13;;;;;;;;;;;;;;;22.17;29.31;95600.34;6160690;28;109338;-62
2023/12/04 13:31:29;;;;;;;;;;;;;;;22.18;29.15;95600.06;6160078;28;109183;-62
2023/12/04 13:34:32;;;;;;;;;;;;;;;22.21;29.34;95599.50;6159952;28;109547;-61
2023/12/04 13:37:36;;;;;;;;;;;;;;;22.31;28.96;95598.50;6148852;28;109081;-63
2023/12/04 13:40:40;;;;;;;;;;;;;;;22.36;29.24;95603.78;6160437;28;109348;-62
2023/12/04 13:43:51;;;;;;;;;;;;;;;22.37;29.02;95602.69;6160496;28;109037;-62
2023/12/04 13:46:54;;;;;;;;;;;;;;;22.38;29.29;95601.59;6155926;28;109383;-61
2023/12/04 13:49:58;;;;;;;;;;;;;;;22.34;29.63;95596.03;6167788;28;109788;-62
2023/12/04 13:53:01;;;;;;;;;;;;;;;22.36;29.84;95598.44;6189072;28;109117;-61
2023/12/04 13:56:24;;;;;;;;;;;;;;;22.35;29.82;95592.31;6188960;28;109370;-60
2023/12/04 13:59:29;;;;;;;;;;;;;;;22.36;29.73;95606.44;6173293;28;111318;-63
2023/12/04 14:02:31;;;;;;;;;;;;;;;22.31;29.76;95603.84;6164143;28;109092;-62
2023/12/04 14:05:35;;;;;;;;;;;;;;;22.26;29.79;95599.41;6181309;28;109367;-62
2023/12/04 14:08:38;;;;;;;;;;;;;;;22.23;29.92;95601.84;6187618;28;109029;-62
2023/12/04 14:11:45;;;;;;;;;;;;;;;22.22;29.96;95600.28;6154507;28;109875;-62
2023/12/04 14:14:48;;;;;;;;;;;;;;;22.19;30.03;95599.00;6173242;28;109547;-62
2023/12/04 14:17:51;;;;;;;;;;;;;;;22.19;29.79;95609.66;6188353;28;109091;-62
2023/12/04 14:20:54;;;;;;;;;;;;;;;22.18;29.79;95607.25;6183630;28;108891;-62
2023/12/04 14:23:57;;;;;;;;;;;;;;;22.17;30.13;95611.78;6180562;28;109221;-61
2023/12/04 14:27:01;;;;;;;;;;;;;;;22.16;29.87;95604.09;6164104;28;109270;-62
2023/12/04 14:30:04;;;;;;;;;;;;;;;22.15;29.76;95600.63;6174693;28;109222;-61
2023/12/04 14:33:08;;;;;;;;;;;;;;;22.14;29.91;95599.06;6178617;28;109716;-62
2023/12/04 14:36:13;;;;;;;;;;;;;;;22.13;30.11;95594.03;6168099;28;109091;-62
2023/12/04 14:39:17;;;;;;;;;;;;;;;22.11;30.07;95600.44;6163424;28;111672;-61
2023/12/04 14:42:22;;;;;;;;;;;;;;;22.10;29.80;95601.53;6163531;28;109531;-63
2023/12/04 14:45:25;;;;;;;;;;;;;;;22.10;30.02;95595.41;6140821;28;109940;-60
2023/12/04 14:48:28;;;;;;;;;;;;;;;22.10;29.91;95596.19;6163309;28;109258;-61
2023/12/04 14:51:31;;;;;;;;;;;;;;;22.10;30.03;95606.06;6163478;28;109181;-61
2023/12/04 14:54:51;;;;;;;;;;;;;;;22.08;29.85;95606.34;6163885;28;108929;-60
2023/12/04 14:58:35;;;;;;;;;;;;;;;22.08;29.72;95603.69;6157826;28;109187;-61
2023/12/04 15:09:20;;;;;;;;;;;;;;;22.08;30.14;95603.69;6149753;28;109494;-61
2023/12/04 15:12:15;;;;;;;;;;;;;;;22.08;30.14;95609.03;6161833;28;109335;-62
2023/12/04 15:15:35;;;;;;;;;;;;;;;22.08;30.00;95603.69;6163070;28;109050;-61
2023/12/04 15:18:42;;;;;;;;;;;;;;;22.10;30.23;95606.06;6152178;28;109535;-63
2023/12/04 15:21:45;;;;;;;;;;;;;;;22.08;30.10;95609.03;6162959;28;108943;-61
2023/12/04 15:24:48;;;;;;;;;;;;;;;22.06;30.05;95611.19;6162560;28;109484;-61